createdAt,value
2023-02-22T00:00:48.623Z,6.51
2023-02-22T00:01:48.627Z,6.48
2023-02-22T00:02:48.645Z,6.46
2023-02-22T00:03:48.623Z,6.42
2023-02-22T00:04:48.573Z,6.38
2023-02-22T00:05:48.563Z,6.33
2023-02-22T00:06:48.569Z,6.30
2023-02-22T00:07:48.544Z,6.28
2023-02-22T00:08:48.539Z,6.28
2023-02-22T00:09:48.538Z,6.27
2023-02-22T00:10:48.522Z,6.22
2023-02-22T00:11:48.498Z,6.19
2023-02-22T00:12:48.502Z,6.12
2023-02-22T00:13:48.484Z,6.09
2023-02-22T00:14:48.488Z,6.05
2023-02-22T00:15:48.459Z,5.99
2023-02-22T00:16:48.436Z,5.97
2023-02-22T00:17:48.428Z,5.94
2023-02-22T00:18:48.449Z,5.91
2023-02-22T00:19:48.438Z,5.91
2023-02-22T00:20:48.419Z,5.93
2023-02-22T00:21:48.409Z,5.93
2023-02-22T00:22:48.389Z,5.91
2023-02-22T00:23:48.374Z,5.89
2023-02-22T00:24:48.372Z,5.84
2023-02-22T00:25:48.384Z,5.83
2023-02-22T00:26:48.331Z,5.80
2023-02-22T00:27:48.321Z,5.79
2023-02-22T00:28:48.336Z,5.75
2023-02-22T00:29:48.288Z,5.72
2023-02-22T00:30:48.298Z,5.69
2023-02-22T00:31:48.399Z,5.68
2023-02-22T00:32:48.285Z,5.65
2023-02-22T00:33:48.295Z,5.61
2023-02-22T00:34:48.252Z,5.56
2023-02-22T00:35:48.227Z,5.53
2023-02-22T00:36:48.293Z,5.50
2023-02-22T00:37:48.215Z,5.48
2023-02-22T00:38:48.199Z,5.47
2023-02-22T00:39:48.180Z,5.46
2023-02-22T00:40:48.184Z,5.41
2023-02-22T00:41:48.274Z,5.41
2023-02-22T00:42:48.151Z,5.36
2023-02-22T00:43:48.134Z,5.35
2023-02-22T00:44:48.132Z,5.33
2023-02-22T00:45:48.130Z,5.30
2023-02-22T00:46:48.132Z,5.30
2023-02-22T00:47:48.101Z,5.28
2023-02-22T00:48:48.088Z,5.25
2023-02-22T00:49:48.062Z,5.23
2023-02-22T00:50:48.063Z,5.20
2023-02-22T00:51:48.081Z,5.20
2023-02-22T00:52:48.035Z,5.15
2023-02-22T00:53:48.053Z,5.14
2023-02-22T00:54:48.038Z,5.11
2023-02-22T00:55:48.029Z,5.11
2023-02-22T00:56:48.027Z,5.07
2023-02-22T00:57:47.975Z,5.05
2023-02-22T00:58:48.010Z,5.02
2023-02-22T00:59:47.966Z,5.00
2023-02-22T01:00:48.033Z,4.99
2023-02-22T01:01:47.976Z,4.96
2023-02-22T01:02:47.924Z,4.94
2023-02-22T01:03:47.907Z,4.93
2023-02-22T01:04:47.906Z,4.89
2023-02-22T01:05:47.919Z,4.87
2023-02-22T01:06:47.894Z,4.86
2023-02-22T01:07:47.868Z,4.82
2023-02-22T01:08:47.865Z,4.82
2023-02-22T01:09:47.848Z,4.80
2023-02-22T01:10:47.871Z,4.75
2023-02-22T01:11:47.850Z,4.73
2023-02-22T01:12:47.877Z,4.70
2023-02-22T01:13:47.812Z,4.68
2023-02-22T01:14:47.790Z,4.66
2023-02-22T01:15:47.768Z,4.67
2023-02-22T01:16:47.864Z,4.67
2023-02-22T01:17:47.747Z,4.66
2023-02-22T01:18:47.755Z,4.66
2023-02-22T01:19:47.732Z,4.63
2023-02-22T01:20:47.727Z,4.66
2023-02-22T01:21:47.707Z,4.63
2023-02-22T01:22:47.741Z,4.63
2023-02-22T01:23:47.686Z,4.66
2023-02-22T01:24:47.682Z,4.66
2023-02-22T01:25:47.668Z,4.67
2023-02-22T01:26:47.649Z,4.67
2023-02-22T01:27:47.639Z,4.63
2023-02-22T01:28:47.660Z,4.58
2023-02-22T01:29:47.628Z,4.52
2023-02-22T01:30:47.768Z,4.48
2023-02-22T01:31:47.626Z,4.44
2023-02-22T01:32:47.589Z,4.44
2023-02-22T01:33:48.541Z,4.44
2023-02-22T01:34:47.561Z,4.45
2023-02-22T01:35:47.549Z,4.45
2023-02-22T01:36:47.572Z,4.48
2023-02-22T01:37:47.523Z,4.48
2023-02-22T01:38:47.519Z,4.44
2023-02-22T01:39:47.496Z,4.44
2023-02-22T01:40:47.508Z,4.44
2023-02-22T01:41:47.498Z,4.44
2023-02-22T01:42:47.470Z,4.45
2023-02-22T01:43:47.469Z,4.49
2023-02-22T01:44:47.454Z,4.49
2023-02-22T01:45:47.502Z,4.49
2023-02-22T01:46:47.462Z,4.50
2023-02-22T01:47:47.418Z,4.50
2023-02-22T01:48:47.438Z,4.55
2023-02-22T01:49:47.388Z,4.58
2023-02-22T01:50:47.377Z,4.60
2023-02-22T01:51:47.374Z,4.62
2023-02-22T01:52:47.349Z,4.66
2023-02-22T01:53:47.385Z,4.67
2023-02-22T01:54:47.332Z,4.67
2023-02-22T01:55:47.330Z,4.67
2023-02-22T01:56:47.334Z,4.68
2023-02-22T01:57:47.310Z,4.70
2023-02-22T01:58:47.300Z,4.70
2023-02-22T01:59:47.311Z,4.70
2023-02-22T02:00:47.276Z,4.73
2023-02-22T02:01:47.290Z,4.73
2023-02-22T02:02:47.260Z,4.73
2023-02-22T02:03:47.287Z,4.73
2023-02-22T02:04:47.307Z,4.71
2023-02-22T02:05:47.249Z,4.73
2023-02-22T02:06:47.232Z,4.73
2023-02-22T02:07:47.204Z,4.73
2023-02-22T02:08:47.198Z,4.73
2023-02-22T02:09:47.222Z,4.71
2023-02-22T02:10:47.171Z,4.71
2023-02-22T02:11:47.171Z,4.70
2023-02-22T02:12:47.179Z,4.71
2023-02-22T02:13:47.141Z,4.73
2023-02-22T02:14:47.127Z,4.73
2023-02-22T02:15:47.118Z,4.74
2023-02-22T02:16:47.758Z,4.73
2023-02-22T02:17:47.100Z,4.70
2023-02-22T02:18:47.087Z,4.70
2023-02-22T02:19:47.114Z,4.71
2023-02-22T02:20:47.054Z,4.73
2023-02-22T02:21:47.054Z,4.73
2023-02-22T02:22:47.038Z,4.74
2023-02-22T02:23:47.027Z,4.74
2023-02-22T02:24:47.018Z,4.73
2023-02-22T02:25:47.046Z,4.71
2023-02-22T02:26:46.991Z,4.68
2023-02-22T02:27:46.980Z,4.67
2023-02-22T02:28:46.967Z,4.67
2023-02-22T02:29:46.999Z,4.67
2023-02-22T02:30:46.948Z,4.70
2023-02-22T02:31:47.051Z,4.71
2023-02-22T02:32:47.013Z,4.71
2023-02-22T02:33:46.918Z,4.71
2023-02-22T02:34:46.902Z,4.74
2023-02-22T02:35:46.932Z,4.74
2023-02-22T02:36:46.895Z,4.75
2023-02-22T02:37:46.870Z,4.80
2023-02-22T02:38:46.931Z,4.82
2023-02-22T02:39:46.860Z,4.84
2023-02-22T02:40:46.852Z,4.82
2023-02-22T02:41:46.838Z,4.87
2023-02-22T02:42:46.828Z,4.89
2023-02-22T02:43:46.810Z,4.89
2023-02-22T02:44:46.801Z,4.92
2023-02-22T02:45:46.820Z,4.92
2023-02-22T02:46:46.831Z,4.92
2023-02-22T02:47:46.763Z,4.92
2023-02-22T02:48:46.757Z,4.94
2023-02-22T02:49:46.776Z,4.96
2023-02-22T02:50:46.726Z,4.96
2023-02-22T02:51:46.742Z,4.97
2023-02-22T02:52:46.693Z,4.97
2023-02-22T02:53:46.712Z,4.99
2023-02-22T02:54:46.699Z,4.97
2023-02-22T02:55:46.673Z,4.99
2023-02-22T02:56:46.674Z,5.00
2023-02-22T02:57:46.649Z,5.02
2023-02-22T02:58:46.653Z,5.04
2023-02-22T02:59:46.632Z,5.05
2023-02-22T03:00:46.635Z,5.05
2023-02-22T03:01:46.667Z,5.07
2023-02-22T03:02:47.558Z,5.05
2023-02-22T03:03:46.583Z,5.08
2023-02-22T03:04:46.585Z,5.10
2023-02-22T03:05:46.567Z,5.10
2023-02-22T03:06:46.595Z,5.10
2023-02-22T03:07:46.560Z,5.11
2023-02-22T03:08:46.539Z,5.08
2023-02-22T03:09:46.545Z,5.08
2023-02-22T03:10:46.494Z,5.08
2023-02-22T03:11:46.500Z,5.08
2023-02-22T03:12:46.486Z,5.08
2023-02-22T03:13:46.466Z,5.07
2023-02-22T03:14:46.467Z,5.08
2023-02-22T03:15:46.495Z,5.08
2023-02-22T03:16:46.437Z,5.11
2023-02-22T03:17:46.432Z,5.11
2023-02-22T03:18:46.435Z,5.14
2023-02-22T03:19:46.399Z,5.12
2023-02-22T03:20:46.402Z,5.12
2023-02-22T03:21:46.401Z,5.14
2023-02-22T03:22:46.368Z,5.14
2023-02-22T03:23:46.365Z,5.12
2023-02-22T03:24:46.340Z,5.14
2023-02-22T03:25:46.362Z,5.15
2023-02-22T03:26:46.320Z,5.15
2023-02-22T03:27:46.358Z,5.18
2023-02-22T03:28:46.307Z,5.20
2023-02-22T03:29:46.322Z,5.18
2023-02-22T03:30:46.340Z,5.18
2023-02-22T03:31:47.089Z,5.20
2023-02-22T03:32:46.252Z,5.21
2023-02-22T03:33:46.281Z,5.23
2023-02-22T03:34:46.232Z,5.20
2023-02-22T03:35:46.229Z,5.18
2023-02-22T03:36:46.388Z,5.14
2023-02-22T03:37:46.224Z,5.15
2023-02-22T03:38:46.646Z,5.14
2023-02-22T03:39:46.188Z,5.17
2023-02-22T03:40:46.168Z,5.15
2023-02-22T03:41:46.228Z,5.15
2023-02-22T03:42:46.500Z,5.15
2023-02-22T03:43:46.147Z,5.15
2023-02-22T03:44:46.126Z,5.17
2023-02-22T03:45:46.203Z,5.18
2023-02-22T03:46:46.119Z,5.18
2023-02-22T03:47:46.102Z,5.17
2023-02-22T03:48:46.068Z,5.15
2023-02-22T03:49:46.080Z,5.14
2023-02-22T03:50:46.047Z,5.14
2023-02-22T03:51:46.075Z,5.14
2023-02-22T03:52:46.072Z,5.15
2023-02-22T03:53:46.046Z,5.15
2023-02-22T03:54:46.009Z,5.14
2023-02-22T03:55:46.062Z,5.14
2023-02-22T03:56:46.442Z,5.14
2023-02-22T03:57:45.979Z,5.15
2023-02-22T03:58:45.955Z,5.17
2023-02-22T03:59:45.951Z,5.18
2023-02-22T04:00:45.933Z,5.18
2023-02-22T04:01:45.954Z,5.18
2023-02-22T04:02:45.980Z,5.17
2023-02-22T04:03:45.940Z,5.15
2023-02-22T04:04:45.982Z,5.17
2023-02-22T04:05:45.893Z,5.17
2023-02-22T04:06:45.870Z,5.15
2023-02-22T04:07:45.871Z,5.14
2023-02-22T04:08:45.839Z,5.12
2023-02-22T04:09:45.838Z,5.10
2023-02-22T04:10:45.849Z,5.08
2023-02-22T04:11:45.833Z,5.07
2023-02-22T04:12:46.032Z,5.08
2023-02-22T04:13:45.790Z,5.10
2023-02-22T04:14:45.787Z,5.11
2023-02-22T04:15:45.800Z,5.11
2023-02-22T04:16:45.768Z,5.10
2023-02-22T04:17:45.890Z,5.12
2023-02-22T04:18:45.751Z,5.11
2023-02-22T04:19:47.180Z,5.12
2023-02-22T04:20:45.720Z,5.14
2023-02-22T04:21:45.701Z,5.14
2023-02-22T04:22:46.641Z,5.14
2023-02-22T04:23:45.886Z,5.15
2023-02-22T04:24:45.687Z,5.17
2023-02-22T04:25:45.687Z,5.17
2023-02-22T04:26:45.696Z,5.18
2023-02-22T04:27:45.652Z,5.20
2023-02-22T04:28:45.628Z,5.20
2023-02-22T04:29:46.574Z,5.20
2023-02-22T04:30:45.670Z,5.20
2023-02-22T04:31:45.735Z,5.21
2023-02-22T04:32:45.574Z,5.21
2023-02-22T04:33:46.586Z,5.21
2023-02-22T04:34:45.624Z,5.21
2023-02-22T04:35:45.797Z,5.23
2023-02-22T04:36:45.537Z,5.20
2023-02-22T04:37:45.622Z,5.18
2023-02-22T04:38:45.591Z,5.18
2023-02-22T04:39:47.511Z,5.20
2023-02-22T04:40:45.535Z,5.20
2023-02-22T04:41:45.700Z,5.21
2023-02-22T04:42:45.472Z,5.21
2023-02-22T04:43:45.471Z,5.21
2023-02-22T04:44:46.889Z,5.21
2023-02-22T04:45:45.439Z,5.21
2023-02-22T04:46:45.575Z,5.23
2023-02-22T04:47:45.438Z,5.25
2023-02-22T04:48:45.401Z,5.26
2023-02-22T04:49:45.453Z,5.25
2023-02-22T04:50:45.406Z,5.25
2023-02-22T04:51:45.376Z,5.25
2023-02-22T04:52:45.387Z,5.21
2023-02-22T04:53:45.357Z,5.21
2023-02-22T04:54:45.345Z,5.20
2023-02-22T04:55:45.463Z,5.18
2023-02-22T04:56:45.320Z,5.18
2023-02-22T04:57:46.243Z,5.18
2023-02-22T04:58:45.366Z,5.18
2023-02-22T04:59:45.272Z,5.20
2023-02-22T05:00:45.259Z,5.20
2023-02-22T05:01:45.262Z,5.20
2023-02-22T05:02:45.340Z,5.23
2023-02-22T05:03:45.253Z,5.23
2023-02-22T05:04:45.402Z,5.23
2023-02-22T05:05:45.203Z,5.21
2023-02-22T05:06:45.214Z,5.23
2023-02-22T05:07:45.214Z,5.23
2023-02-22T05:08:45.188Z,5.23
2023-02-22T05:09:45.176Z,5.23
2023-02-22T05:10:45.170Z,5.23
2023-02-22T05:11:45.164Z,5.25
2023-02-22T05:12:45.126Z,5.23
2023-02-22T05:13:45.123Z,5.26
2023-02-22T05:14:45.123Z,5.26
2023-02-22T05:15:45.152Z,5.26
2023-02-22T05:16:45.097Z,5.28
2023-02-22T05:17:45.080Z,5.28
2023-02-22T05:18:45.054Z,5.28
2023-02-22T05:19:45.098Z,5.26
2023-02-22T05:20:45.050Z,5.26
2023-02-22T05:21:45.035Z,5.26
2023-02-22T05:22:45.194Z,5.29
2023-02-22T05:23:45.001Z,5.29
2023-02-22T05:24:44.991Z,5.28
2023-02-22T05:25:45.094Z,5.29
2023-02-22T05:26:44.973Z,5.29
2023-02-22T05:27:44.969Z,5.30
2023-02-22T05:28:46.938Z,5.30
2023-02-22T05:29:44.937Z,5.32
2023-02-22T05:30:44.981Z,5.33
2023-02-22T05:31:45.177Z,5.33
2023-02-22T05:32:46.965Z,5.33
2023-02-22T05:33:45.448Z,5.35
2023-02-22T05:34:44.888Z,5.32
2023-02-22T05:35:44.899Z,5.33
2023-02-22T05:36:44.849Z,5.35
2023-02-22T05:37:45.799Z,5.36
2023-02-22T05:38:44.846Z,5.36
2023-02-22T05:39:44.829Z,5.33
2023-02-22T05:40:44.852Z,5.35
2023-02-22T05:41:44.808Z,5.36
2023-02-22T05:42:44.791Z,5.36
2023-02-22T05:43:44.792Z,5.39
2023-02-22T05:44:44.770Z,5.39
2023-02-22T05:45:44.762Z,5.39
2023-02-22T05:46:44.805Z,5.43
2023-02-22T05:47:44.741Z,5.44
2023-02-22T05:48:44.708Z,5.44
2023-02-22T05:49:45.667Z,5.43
2023-02-22T05:50:44.786Z,5.46
2023-02-22T05:51:44.704Z,5.46
2023-02-22T05:52:44.720Z,5.46
2023-02-22T05:53:44.662Z,5.47
2023-02-22T05:54:44.659Z,5.46
2023-02-22T05:55:46.425Z,5.46
2023-02-22T05:56:44.629Z,5.46
2023-02-22T05:57:45.575Z,5.43
2023-02-22T05:58:44.625Z,5.41
2023-02-22T05:59:45.450Z,5.41
2023-02-22T06:00:44.582Z,5.41
2023-02-22T06:01:44.617Z,5.41
2023-02-22T06:02:44.592Z,5.41
2023-02-22T06:03:44.581Z,5.41
2023-02-22T06:04:44.535Z,5.43
2023-02-22T06:05:44.597Z,5.41
2023-02-22T06:06:44.525Z,5.39
2023-02-22T06:07:44.530Z,5.39
2023-02-22T06:08:44.510Z,5.41
2023-02-22T06:09:44.582Z,5.41
2023-02-22T06:10:44.469Z,5.43
2023-02-22T06:11:44.484Z,5.43
2023-02-22T06:12:44.448Z,5.44
2023-02-22T06:13:44.434Z,5.44
2023-02-22T06:14:44.446Z,5.46
2023-02-22T06:15:44.432Z,5.44
2023-02-22T06:16:44.392Z,5.43
2023-02-22T06:17:44.381Z,5.41
2023-02-22T06:18:44.390Z,5.41
2023-02-22T06:19:44.432Z,5.39
2023-02-22T06:20:44.374Z,5.41
2023-02-22T06:21:44.347Z,5.44
2023-02-22T06:22:44.347Z,5.46
2023-02-22T06:23:44.354Z,5.47
2023-02-22T06:24:44.330Z,5.47
2023-02-22T06:25:44.303Z,5.47
2023-02-22T06:26:44.324Z,5.46
2023-02-22T06:27:44.298Z,5.46
2023-02-22T06:28:44.295Z,5.46
2023-02-22T06:29:44.291Z,5.48
2023-02-22T06:30:44.392Z,5.48
2023-02-22T06:31:44.306Z,5.51
2023-02-22T06:32:44.244Z,5.51
2023-02-22T06:33:44.255Z,5.51
2023-02-22T06:34:44.202Z,5.51
2023-02-22T06:35:44.555Z,5.51
2023-02-22T06:36:44.184Z,5.53
2023-02-22T06:37:44.169Z,5.53
2023-02-22T06:38:44.176Z,5.53
2023-02-22T06:39:45.145Z,5.53
2023-02-22T06:40:44.129Z,5.56
2023-02-22T06:41:44.113Z,5.61
2023-02-22T06:42:45.585Z,5.61
2023-02-22T06:43:44.105Z,5.64
2023-02-22T06:44:44.086Z,5.62
2023-02-22T06:45:44.140Z,5.61
2023-02-22T06:46:44.092Z,5.61
2023-02-22T06:47:44.182Z,5.56
2023-02-22T06:48:44.036Z,5.54
2023-02-22T06:49:44.040Z,5.53
2023-02-22T06:50:44.034Z,5.54
2023-02-22T06:51:44.006Z,5.51
2023-02-22T06:52:44.007Z,5.53
2023-02-22T06:53:43.984Z,5.53
2023-02-22T06:54:43.976Z,5.51
2023-02-22T06:55:44.540Z,5.48
2023-02-22T06:56:43.977Z,5.50
2023-02-22T06:57:43.941Z,5.50
2023-02-22T06:58:43.939Z,5.50
2023-02-22T06:59:43.969Z,5.53
2023-02-22T07:00:43.972Z,5.56
2023-02-22T07:01:43.929Z,5.59
2023-02-22T07:02:43.890Z,5.62
2023-02-22T07:03:43.897Z,5.65
2023-02-22T07:04:43.891Z,5.71
2023-02-22T07:05:43.854Z,5.72
2023-02-22T07:06:43.850Z,5.75
2023-02-22T07:07:43.847Z,5.79
2023-02-22T07:08:43.812Z,5.82
2023-02-22T07:09:45.558Z,5.80
2023-02-22T07:10:43.786Z,5.76
2023-02-22T07:11:43.789Z,5.75
2023-02-22T07:12:43.798Z,5.72
2023-02-22T07:13:43.754Z,5.68
2023-02-22T07:14:43.797Z,5.66
2023-02-22T07:15:43.767Z,5.66
2023-02-22T07:16:43.801Z,5.65
2023-02-22T07:17:43.758Z,5.62
2023-02-22T07:18:43.746Z,5.62
2023-02-22T07:19:43.740Z,5.61
2023-02-22T07:20:43.694Z,5.59
2023-02-22T07:21:43.683Z,5.57
2023-02-22T07:22:43.667Z,5.56
2023-02-22T07:23:43.652Z,5.57
2023-02-22T07:24:43.654Z,5.56
2023-02-22T07:25:43.649Z,5.57
2023-02-22T07:26:43.625Z,5.54
2023-02-22T07:27:43.599Z,5.57
2023-02-22T07:28:43.624Z,5.57
2023-02-22T07:29:43.593Z,5.57
2023-02-22T07:30:43.655Z,5.59
2023-02-22T07:31:43.573Z,5.59
2023-02-22T07:32:43.678Z,5.62
2023-02-22T07:33:43.561Z,5.64
2023-02-22T07:34:43.622Z,5.66
2023-02-22T07:35:43.520Z,5.68
2023-02-22T07:36:43.525Z,5.68
2023-02-22T07:37:43.496Z,5.69
2023-02-22T07:38:43.486Z,5.71
2023-02-22T07:39:43.500Z,5.72
2023-02-22T07:40:43.465Z,5.73
2023-02-22T07:41:44.414Z,5.75
2023-02-22T07:42:43.436Z,5.75
2023-02-22T07:43:43.445Z,5.75
2023-02-22T07:44:43.424Z,5.75
2023-02-22T07:45:43.421Z,5.76
2023-02-22T07:46:43.435Z,5.80
2023-02-22T07:47:43.383Z,5.80
2023-02-22T07:48:43.932Z,5.83
2023-02-22T07:49:43.378Z,5.84
2023-02-22T07:50:43.351Z,5.86
2023-02-22T07:51:43.345Z,5.86
2023-02-22T07:52:43.361Z,5.89
2023-02-22T07:53:43.305Z,5.90
2023-02-22T07:54:43.317Z,5.93
2023-02-22T07:55:43.301Z,5.97
2023-02-22T07:56:43.326Z,5.98
2023-02-22T07:57:43.326Z,6.02
2023-02-22T07:58:43.271Z,6.05
2023-02-22T07:59:43.265Z,6.11
2023-02-22T08:00:43.275Z,6.16
2023-02-22T08:01:43.237Z,6.17
2023-02-22T08:02:44.730Z,6.22
2023-02-22T08:03:43.298Z,6.24
2023-02-22T08:04:43.252Z,6.27
2023-02-22T08:05:43.175Z,6.30
2023-02-22T08:06:43.272Z,6.33
2023-02-22T08:07:43.207Z,6.38
2023-02-22T08:08:43.146Z,6.39
2023-02-22T08:09:43.147Z,6.44
2023-02-22T08:10:43.192Z,6.46
2023-02-22T08:11:43.130Z,6.49
2023-02-22T08:12:43.110Z,6.54
2023-02-22T08:13:43.426Z,6.57
2023-02-22T08:14:43.092Z,6.59
2023-02-22T08:15:43.073Z,6.62
2023-02-22T08:16:43.091Z,6.64
2023-02-22T08:17:43.056Z,6.69
2023-02-22T08:18:43.093Z,6.72
2023-02-22T08:19:43.044Z,6.77
2023-02-22T08:20:43.056Z,6.81
2023-02-22T08:21:43.016Z,6.85
2023-02-22T08:22:43.002Z,6.89
2023-02-22T08:23:43.033Z,6.96
2023-02-22T08:24:42.996Z,6.99
2023-02-22T08:25:43.041Z,7.02
2023-02-22T08:26:42.951Z,7.05
2023-02-22T08:27:42.932Z,7.07
2023-02-22T08:28:42.931Z,7.11
2023-02-22T08:29:42.955Z,7.14
2023-02-22T08:30:44.414Z,7.17
2023-02-22T08:31:42.997Z,7.18
2023-02-22T08:32:42.990Z,7.23
2023-02-22T08:33:42.861Z,7.25
2023-02-22T08:34:42.881Z,7.29
2023-02-22T08:35:43.234Z,7.33
2023-02-22T08:36:42.854Z,7.36
2023-02-22T08:37:42.825Z,7.38
2023-02-22T08:38:42.816Z,7.42
2023-02-22T08:39:42.809Z,7.43
2023-02-22T08:40:42.821Z,7.48
2023-02-22T08:41:42.774Z,7.50
2023-02-22T08:42:42.794Z,7.53
2023-02-22T08:43:42.749Z,7.56
2023-02-22T08:44:42.750Z,7.60
2023-02-22T08:45:42.810Z,7.66
2023-02-22T08:46:42.766Z,7.67
2023-02-22T08:47:42.720Z,7.70
2023-02-22T08:48:42.694Z,7.73
2023-02-22T08:49:42.714Z,7.75
2023-02-22T08:50:42.696Z,7.77
2023-02-22T08:51:42.667Z,7.80
2023-02-22T08:52:42.670Z,7.83
2023-02-22T08:53:42.645Z,7.87
2023-02-22T08:54:42.666Z,7.91
2023-02-22T08:55:42.636Z,7.95
2023-02-22T08:56:42.618Z,8.01
2023-02-22T08:57:42.601Z,8.05
2023-02-22T08:58:42.644Z,8.09
2023-02-22T08:59:42.607Z,8.12
2023-02-22T09:00:42.582Z,8.15
2023-02-22T09:01:43.414Z,8.18
2023-02-22T09:02:42.542Z,8.20
2023-02-22T09:03:42.556Z,8.26
2023-02-22T09:04:43.554Z,8.30
2023-02-22T09:05:42.558Z,8.34
2023-02-22T09:06:42.546Z,8.36
2023-02-22T09:07:42.497Z,8.42
2023-02-22T09:08:42.517Z,8.45
2023-02-22T09:09:42.489Z,8.49
2023-02-22T09:10:42.459Z,8.55
2023-02-22T09:11:42.456Z,8.58
2023-02-22T09:12:42.609Z,8.63
2023-02-22T09:13:42.406Z,8.69
2023-02-22T09:14:42.450Z,8.74
2023-02-22T09:15:42.418Z,8.82
2023-02-22T09:16:42.401Z,8.88
2023-02-22T09:17:43.360Z,8.94
2023-02-22T09:18:44.308Z,9.02
2023-02-22T09:19:42.397Z,9.06
2023-02-22T09:20:42.371Z,9.11
2023-02-22T09:21:42.322Z,9.16
2023-02-22T09:22:42.358Z,9.21
2023-02-22T09:23:42.298Z,9.25
2023-02-22T09:24:42.289Z,9.31
2023-02-22T09:25:42.610Z,9.32
2023-02-22T09:26:42.272Z,9.37
2023-02-22T09:27:42.259Z,9.40
2023-02-22T09:28:42.245Z,9.41
2023-02-22T09:29:43.200Z,9.44
2023-02-22T09:30:42.318Z,9.48
2023-02-22T09:31:42.281Z,9.51
2023-02-22T09:32:42.425Z,9.55
2023-02-22T09:33:42.341Z,9.58
2023-02-22T09:34:42.175Z,9.59
2023-02-22T09:35:42.277Z,9.65
2023-02-22T09:36:42.253Z,9.69
2023-02-22T09:37:42.153Z,9.73
2023-02-22T09:38:42.149Z,9.77
2023-02-22T09:39:42.208Z,9.79
2023-02-22T09:40:43.073Z,9.82
2023-02-22T09:41:42.093Z,9.83
2023-02-22T09:42:42.118Z,9.87
2023-02-22T09:43:42.123Z,9.89
2023-02-22T09:44:42.098Z,9.92
2023-02-22T09:45:42.963Z,9.95
2023-02-22T09:46:42.058Z,9.98
2023-02-22T09:47:45.982Z,10.01
2023-02-22T09:48:49.300Z,10.02
2023-02-22T09:49:42.297Z,10.05
2023-02-22T09:50:42.327Z,10.09
2023-02-22T09:51:42.286Z,10.13
2023-02-22T09:52:42.726Z,10.19
2023-02-22T09:53:42.123Z,10.20
2023-02-22T09:54:41.966Z,10.23
2023-02-22T09:55:41.944Z,10.26
2023-02-22T09:56:41.918Z,10.30
2023-02-22T09:57:42.908Z,10.34
2023-02-22T09:58:41.956Z,10.35
2023-02-22T09:59:41.918Z,10.38
2023-02-22T10:00:42.850Z,10.42
2023-02-22T10:01:41.869Z,10.44
2023-02-22T10:02:41.860Z,10.48
2023-02-22T10:03:41.922Z,10.51
2023-02-22T10:04:41.865Z,10.51
2023-02-22T10:05:42.892Z,10.54
2023-02-22T10:06:41.800Z,10.56
2023-02-22T10:07:42.778Z,10.59
2023-02-22T10:08:41.802Z,10.60
2023-02-22T10:09:41.798Z,10.63
2023-02-22T10:10:41.812Z,10.67
2023-02-22T10:11:41.768Z,10.71
2023-02-22T10:12:41.771Z,10.75
2023-02-22T10:13:41.733Z,10.78
2023-02-22T10:14:43.856Z,10.82
2023-02-22T10:15:41.724Z,10.86
2023-02-22T10:16:41.793Z,10.90
2023-02-22T10:17:41.693Z,10.93
2023-02-22T10:18:41.698Z,10.96
2023-02-22T10:19:41.690Z,10.97
2023-02-22T10:20:41.674Z,10.99
2023-02-22T10:21:41.651Z,11.04
2023-02-22T10:22:41.646Z,11.07
2023-02-22T10:23:41.664Z,11.11
2023-02-22T10:24:41.629Z,11.14
2023-02-22T10:25:41.655Z,11.17
2023-02-22T10:26:42.679Z,11.19
2023-02-22T10:27:42.542Z,11.23
2023-02-22T10:28:41.593Z,11.27
2023-02-22T10:29:41.595Z,11.32
2023-02-22T10:30:41.592Z,11.36
2023-02-22T10:31:42.684Z,11.43
2023-02-22T10:32:41.591Z,11.45
2023-02-22T10:33:41.533Z,11.48
2023-02-22T10:34:41.490Z,11.51
2023-02-22T10:35:41.486Z,11.55
2023-02-22T10:36:41.486Z,11.59
2023-02-22T10:37:41.542Z,11.62
2023-02-22T10:38:41.777Z,11.68
2023-02-22T10:39:42.691Z,11.70
2023-02-22T10:40:41.424Z,11.78
2023-02-22T10:41:41.442Z,11.84
2023-02-22T10:42:41.459Z,11.88
2023-02-22T10:43:41.406Z,11.95
2023-02-22T10:44:41.404Z,12.02
2023-02-22T10:45:41.490Z,12.09
2023-02-22T10:46:41.370Z,12.12
2023-02-22T10:47:41.410Z,12.17
2023-02-22T10:48:41.358Z,12.22
2023-02-22T10:49:41.340Z,12.27
2023-02-22T10:50:41.365Z,12.29
2023-02-22T10:51:41.807Z,12.36
2023-02-22T10:52:41.331Z,12.40
2023-02-22T10:53:41.617Z,12.45
2023-02-22T10:54:41.339Z,12.49
2023-02-22T10:55:41.325Z,12.53
2023-02-22T10:56:41.332Z,12.55
2023-02-22T10:57:41.250Z,12.58
2023-02-22T10:58:41.242Z,12.61
2023-02-22T10:59:41.308Z,12.64
2023-02-22T11:00:41.237Z,12.67
2023-02-22T11:01:41.284Z,12.68
2023-02-22T11:02:41.292Z,12.70
2023-02-22T11:03:41.215Z,12.72
2023-02-22T11:04:41.284Z,12.75
2023-02-22T11:05:41.183Z,12.75
2023-02-22T11:06:41.205Z,12.78
2023-02-22T11:07:41.150Z,12.79
2023-02-22T11:08:41.150Z,12.82
2023-02-22T11:09:41.119Z,12.83
2023-02-22T11:10:41.137Z,12.87
2023-02-22T11:11:41.120Z,12.91
2023-02-22T11:12:42.191Z,12.94
2023-02-22T11:13:41.072Z,12.98
2023-02-22T11:14:41.092Z,13.03
2023-02-22T11:15:41.048Z,13.09
2023-02-22T11:16:41.073Z,13.13
2023-02-22T11:17:41.024Z,13.16
2023-02-22T11:18:41.070Z,13.20
2023-02-22T11:19:41.019Z,13.27
2023-02-22T11:20:40.992Z,13.30
2023-02-22T11:21:40.984Z,13.33
2023-02-22T11:22:40.972Z,13.38
2023-02-22T11:23:42.570Z,13.41
2023-02-22T11:24:49.025Z,13.46
2023-02-22T11:25:41.966Z,13.50
2023-02-22T11:26:40.925Z,13.53
2023-02-22T11:27:40.928Z,13.57
2023-02-22T11:28:40.896Z,13.62
2023-02-22T11:29:40.902Z,13.65
2023-02-22T11:30:40.917Z,13.68
2023-02-22T11:31:40.943Z,13.71
2023-02-22T11:32:40.856Z,13.72
2023-02-22T11:33:40.859Z,13.75
2023-02-22T11:34:40.845Z,13.77
2023-02-22T11:35:40.842Z,13.77
2023-02-22T11:36:42.764Z,13.77
2023-02-22T11:37:40.796Z,13.77
2023-02-22T11:38:41.746Z,13.78
2023-02-22T11:39:41.865Z,13.79
2023-02-22T11:40:40.815Z,13.79
2023-02-22T11:41:41.358Z,13.81
2023-02-22T11:42:40.747Z,13.86
2023-02-22T11:43:40.748Z,13.89
2023-02-22T11:44:40.706Z,13.89
2023-02-22T11:45:49.850Z,13.90
2023-02-22T11:46:41.790Z,13.92
2023-02-22T11:47:40.705Z,13.95
2023-02-22T11:48:40.667Z,13.95
2023-02-22T11:49:40.851Z,13.97
2023-02-22T11:50:40.661Z,13.99
2023-02-22T11:51:40.668Z,14.00
2023-02-22T11:52:41.848Z,14.00
2023-02-22T11:53:40.638Z,14.03
2023-02-22T11:54:40.615Z,14.05
2023-02-22T11:55:43.297Z,14.10
2023-02-22T11:56:41.398Z,14.12
2023-02-22T11:57:40.592Z,14.17
2023-02-22T11:58:40.576Z,14.22
2023-02-22T11:59:40.552Z,14.26
2023-02-22T12:00:40.850Z,14.30
2023-02-22T12:01:40.524Z,14.35
2023-02-22T12:02:43.681Z,14.36
2023-02-22T12:03:41.586Z,14.40
2023-02-22T12:04:40.649Z,14.44
2023-02-22T12:05:40.474Z,14.47
2023-02-22T12:06:41.166Z,14.48
2023-02-22T12:07:40.467Z,14.48
2023-02-22T12:08:40.485Z,14.48
2023-02-22T12:09:41.429Z,14.51
2023-02-22T12:10:40.627Z,14.50
2023-02-22T12:11:40.698Z,14.51
2023-02-22T12:12:40.430Z,14.53
2023-02-22T12:13:41.223Z,14.54
2023-02-22T12:14:41.388Z,14.54
2023-02-22T12:15:40.478Z,14.53
2023-02-22T12:16:40.430Z,14.54
2023-02-22T12:17:43.682Z,14.58
2023-02-22T12:18:41.355Z,14.59
2023-02-22T12:19:40.340Z,14.66
2023-02-22T12:20:41.137Z,14.77
2023-02-22T12:21:40.373Z,14.81
2023-02-22T12:22:40.310Z,14.85
2023-02-22T12:23:41.728Z,14.92
2023-02-22T12:24:40.294Z,14.96
2023-02-22T12:25:40.262Z,14.97
2023-02-22T12:26:40.298Z,14.99
2023-02-22T12:27:40.243Z,15.02
2023-02-22T12:28:40.311Z,15.03
2023-02-22T12:29:40.236Z,15.07
2023-02-22T12:30:40.268Z,15.09
2023-02-22T12:31:40.357Z,15.10
2023-02-22T12:32:40.218Z,15.10
2023-02-22T12:33:40.184Z,15.11
2023-02-22T12:34:40.225Z,15.11
2023-02-22T12:35:40.432Z,15.17
2023-02-22T12:36:40.509Z,15.19
2023-02-22T12:37:40.185Z,15.24
2023-02-22T12:38:41.575Z,15.28
2023-02-22T12:39:52.296Z,15.35
2023-02-22T12:40:42.042Z,15.40
2023-02-22T12:41:41.520Z,15.46
2023-02-22T12:42:41.512Z,15.55
2023-02-22T12:43:40.177Z,15.62
2023-02-22T12:44:40.979Z,15.72
2023-02-22T12:45:40.902Z,15.76
2023-02-22T12:46:40.113Z,15.84
2023-02-22T12:47:41.465Z,15.88
2023-02-22T12:48:40.548Z,15.90
2023-02-22T12:49:41.435Z,15.86
2023-02-22T12:50:41.491Z,15.84
2023-02-22T12:51:40.817Z,15.88
2023-02-22T12:52:40.095Z,15.91
2023-02-22T12:53:39.945Z,15.91
2023-02-22T12:54:39.933Z,15.95
2023-02-22T12:55:41.370Z,16.01
2023-02-22T12:56:40.717Z,16.02
2023-02-22T12:57:39.890Z,16.01
2023-02-22T12:58:40.506Z,16.05
2023-02-22T12:59:39.893Z,16.12
2023-02-22T13:00:40.070Z,16.16
2023-02-22T13:01:41.422Z,16.17
2023-02-22T13:02:39.886Z,16.20
2023-02-22T13:03:39.831Z,16.21
2023-02-22T13:04:39.835Z,16.23
2023-02-22T13:05:39.827Z,16.26
2023-02-22T13:06:39.801Z,16.26
2023-02-22T13:07:39.796Z,16.24
2023-02-22T13:08:40.126Z,16.26
2023-02-22T13:09:39.939Z,16.26
2023-02-22T13:10:39.762Z,16.28
2023-02-22T13:11:39.777Z,16.29